Airfield :







YOU CAN JOIN US ON...

 
LOGIN :

Register | Disclaimer

   EN    FR    IT 

 









Legend :    VFR   Marginal VFR   IFR   Intensive IFR   Very Intensive IFR
Visi :
Ceiling :
>= 8 km
>= 3000ft
5 to 8 km
1000 to 3000 ft
1500m to 5 km
500 to 1000 ft
800 to 1500m
200 to 500 ft
< 800m
< 200 ft
Symbols :   Thunderstorms  Fog  Heavy snow  Heavy precipitations  Wind > 20 kt






- Airport Elevation : 133 ft
- IATA code : BED


KBED - Laurence G Hanscom Field

CURRENT METAR :
  • 151151Z 26015G24KT 230V290 10SM OVC045 07/M02 A2941 RMK AO2 SLP972 70026 T00671022 10106 20056 53037

EXPIRED METARs :
  • 151051Z AUTO 26014G24KT 10SM BKN041 06/M02 A2937 RMK AO2 PK WND 27026/1013 SLP960 T00611022
  • 150951Z AUTO 26012G24KT 10SM SCT040 OVC110 06/M02 A2933 RMK AO2 SLP947 T00611017

TAF KBED
Valid from the 15 at 12:00 until the 16 at 12:00 UTC


151144Z 1512/1612 25014G27KT P6SM BKN040
FM151500 26020G35KT P6SM SCT050
FM151800 27020G40KT P6SM BKN050
FM160100 28015G28KT P6SM FEW250
FM160700 27010G19KT P6SM FEW200
FM160900 27009KT P6SM FEW150



MET'MAP, your aeronautical weather chart ! - Copyright ORBIFLY December 2007 - Disclaimer

ORBIFLY MET'MAP TEAM :

Programming & Development : Alexandra Zaïnal
Concept & original design : Baudouin d'Aumeries
Assistance for programming : Marc-Olivier Méhu
Technical & hardware support : Manuel Goepfert

Contact : metmap@orbifly.com




SOURCES & CREDITS :

   NOAA